Time;durP1;ratioP1;P1;durP2;ratioP2;P2;SDS_P1;SDS_P2;PMS_P1;PMS_P2;Temp;Humidity;BMP_temperature;BMP_pressure;BME280_temperature;BME280_humidity;BME280_pressure;Samples;Min_cycle;Max_cycle;Signal;HPM_P1;HPM_P2
2021/08/09 00:00:19;;;;;;;231.80;176.43;;;;;;;;;;5267074;27;20463;-85
2021/08/09 00:02:48;;;;;;;234.07;189.15;;;;;;;;;;5273375;27;20053;-85
2021/08/09 00:05:16;;;;;;;227.77;184.43;;;;;;;;;;5266946;27;20075;-85
2021/08/09 00:07:45;;;;;;;230.27;189.07;;;;;;;;;;5267284;27;20052;-85
2021/08/09 00:10:13;;;;;;;227.98;189.55;;;;;;;;;;5268657;27;20022;-84
2021/08/09 00:12:42;;;;;;;225.32;187.18;;;;;;;;;;5269229;27;20061;-85
2021/08/09 00:15:10;;;;;;;205.68;152.98;;;;;;;;;;5271289;27;20039;-85
2021/08/09 00:17:39;;;;;;;209.37;152.32;;;;;;;;;;5268088;27;20021;-85
2021/08/09 00:20:08;;;;;;;200.77;181.85;;;;;;;;;;5265988;27;20322;-84
2021/08/09 00:22:36;;;;;;;202.60;184.00;;;;;;;;;;5270244;27;20413;-84
2021/08/09 00:25:05;;;;;;;204.30;185.75;;;;;;;;;;5270826;27;20033;-85
2021/08/09 00:27:34;;;;;;;201.70;182.70;;;;;;;;;;5250052;27;20029;-84
2021/08/09 00:30:03;;;;;;;201.25;182.40;;;;;;;;;;5271264;27;19998;-85
2021/08/09 00:32:31;;;;;;;200.13;147.93;;;;;;;;;;5267777;27;20040;-84
2021/08/09 00:35:00;;;;;;;200.18;150.10;;;;;;;;;;5267156;27;20017;-85
2021/08/09 00:37:29;;;;;;;201.48;150.90;;;;;;;;;;5268039;27;20375;-84
2021/08/09 00:40:04;;;;;;;197.73;148.98;;;;;;;;;;5271720;27;20433;-84
2021/08/09 00:42:32;;;;;;;199.38;150.57;;;;;;;;;;5272249;27;20028;-84
2021/08/09 00:45:04;;;;;;;214.32;165.15;;;;;;;;;;5251960;27;20485;-85
2021/08/09 00:47:32;;;;;;;225.07;174.48;;;;;;;;;;5268623;27;20065;-85
2021/08/09 00:50:01;;;;;;;220.98;174.62;;;;;;;;;;5271162;27;20022;-85
2021/08/09 00:52:31;;;;;;;215.93;163.32;;;;;;;;;;5272275;27;20028;-84
2021/08/09 00:55:00;;;;;;;220.93;165.23;;;;;;;;;;5270047;27;20336;-84
2021/08/09 00:57:29;;;;;;;182.68;165.93;;;;;;;;;;5270134;27;20075;-83
2021/08/09 01:00:00;;;;;;;179.43;163.12;;;;;;;;;;5271396;27;20255;-84
2021/08/09 01:02:31;;;;;;;190.40;172.15;;;;;;;;;;5271497;27;20057;-84
2021/08/09 01:05:01;;;;;;;192.93;174.50;;;;;;;;;;5269804;27;20013;-85
2021/08/09 01:07:43;;;;;;;192.37;173.85;;;;;;;;;;5269393;27;20705;-84
2021/08/09 01:10:27;;;;;;;204.90;148.02;;;;;;;;;;5271681;27;20545;-84
2021/08/09 01:13:02;;;;;;;204.95;147.65;;;;;;;;;;5268809;27;20173;-84
2021/08/09 01:15:33;;;;;;;226.80;174.93;;;;;;;;;;5271535;27;20053;-84
2021/08/09 01:18:03;;;;;;;221.52;170.90;;;;;;;;;;5268917;27;20034;-84
2021/08/09 01:20:32;;;;;;;224.68;177.93;;;;;;;;;;5271014;27;20021;-85
2021/08/09 01:23:16;;;;;;;201.73;154.90;;;;;;;;;;5270055;27;20032;-84
2021/08/09 01:25:45;;;;;;;;;;;;;;;;;;5273055;27;20015;-85
2021/08/09 01:28:13;;;;;;;201.32;157.32;;;;;;;;;;5252786;27;19945;-84
2021/08/09 01:30:43;;;;;;;202.82;159.65;;;;;;;;;;5270432;27;20200;-84
2021/08/09 01:33:13;;;;;;;206.18;160.63;;;;;;;;;;5269881;27;20026;-85
2021/08/09 01:35:43;;;;;;;191.62;174.57;;;;;;;;;;5270134;27;20028;-85
2021/08/09 01:38:12;;;;;;;189.18;172.40;;;;;;;;;;5270632;27;20467;-85
2021/08/09 01:40:42;;;;;;;183.30;166.52;;;;;;;;;;5269829;27;20067;-84
2021/08/09 01:43:11;;;;;;;189.87;172.80;;;;;;;;;;5271588;27;20031;-84
2021/08/09 01:45:40;;;;;;;181.30;164.50;;;;;;;;;;5255022;27;20027;-84
2021/08/09 01:48:10;;;;;;;189.85;172.45;;;;;;;;;;5268123;27;20428;-85
2021/08/09 01:50:39;;;;;;;246.70;191.43;;;;;;;;;;5271458;27;20029;-84
2021/08/09 01:53:08;;;;;;;235.63;190.40;;;;;;;;;;5268797;27;20037;-85
2021/08/09 01:55:37;;;;;;;240.57;188.82;;;;;;;;;;5270510;27;20068;-85
2021/08/09 01:58:06;;;;;;;239.98;186.93;;;;;;;;;;5268495;27;20029;-85
2021/08/09 02:00:35;;;;;;;240.23;190.38;;;;;;;;;;5270138;27;20408;-84
2021/08/09 02:03:04;;;;;;;241.75;191.85;;;;;;;;;;5271032;27;20029;-85
2021/08/09 02:05:33;;;;;;;243.32;195.15;;;;;;;;;;5274186;27;20022;-85
2021/08/09 02:08:02;;;;;;;218.63;170.00;;;;;;;;;;5270877;27;20446;-85
2021/08/09 02:10:31;;;;;;;217.68;170.35;;;;;;;;;;5269456;27;20063;-84
2021/08/09 02:13:16;;;;;;;212.25;162.88;;;;;;;;;;5271649;27;20069;-84
2021/08/09 02:16:03;;;;;;;204.80;184.50;;;;;;;;;;5271893;27;20018;-84
2021/08/09 02:18:38;;;;;;;203.98;184.25;;;;;;;;;;5269663;27;20021;-84
2021/08/09 02:21:09;;;;;;;188.55;171.80;;;;;;;;;;5265208;27;20021;-84
2021/08/09 02:23:42;;;;;;;189.90;172.70;;;;;;;;;;5270376;27;20391;-84
2021/08/09 02:26:11;;;;;;;194.07;176.85;;;;;;;;;;5271929;27;20444;-85
2021/08/09 02:28:41;;;;;;;231.98;191.57;;;;;;;;;;5266344;27;20014;-85
2021/08/09 02:31:12;;;;;;;206.70;159.35;;;;;;;;;;5269988;27;20040;-84
2021/08/09 02:33:41;;;;;;;199.23;146.30;;;;;;;;;;5268035;27;20018;-85
2021/08/09 02:36:11;;;;;;;234.25;175.40;;;;;;;;;;5271093;27;20124;-84
2021/08/09 02:38:40;;;;;;;231.80;169.57;;;;;;;;;;5269710;27;20026;-85
2021/08/09 02:41:09;;;;;;;237.15;175.80;;;;;;;;;;5272975;27;20076;-84
2021/08/09 02:43:38;;;;;;;194.48;140.93;;;;;;;;;;5268008;27;20048;-85
2021/08/09 02:46:08;;;;;;;198.55;147.05;;;;;;;;;;5271484;27;20069;-85
2021/08/09 02:48:38;;;;;;;204.07;147.70;;;;;;;;;;5266717;27;20587;-85
2021/08/09 02:51:07;;;;;;;200.50;147.57;;;;;;;;;;5270198;27;20019;-84
2021/08/09 02:53:36;;;;;;;191.80;171.85;;;;;;;;;;5271010;27;20026;-84
2021/08/09 02:56:04;;;;;;;263.58;215.98;;;;;;;;;;5271611;27;20043;-84
2021/08/09 02:58:33;;;;;;;209.80;189.90;;;;;;;;;;5267322;27;20064;-85
2021/08/09 03:01:02;;;;;;;195.45;177.90;;;;;;;;;;5269039;27;20026;-84
2021/08/09 03:03:32;;;;;;;189.02;172.10;;;;;;;;;;5266206;27;20281;-85
2021/08/09 03:06:01;;;;;;;202.95;183.43;;;;;;;;;;5269376;27;20541;-84
2021/08/09 03:08:30;;;;;;;223.77;184.50;;;;;;;;;;5268173;27;20041;-84
2021/08/09 03:23:03;;;;;;;197.93;143.23;;;;;;;;;;5253942;27;20489;-84
2021/08/09 03:25:32;;;;;;;188.23;143.68;;;;;;;;;;5260085;27;20061;-85
2021/08/09 03:28:02;;;;;;;192.05;143.80;;;;;;;;;;5264753;27;20312;-84
2021/08/09 03:30:31;;;;;;;193.98;144.37;;;;;;;;;;5263810;27;20030;-83
2021/08/09 03:33:02;;;;;;;196.23;177.35;;;;;;;;;;5262707;27;20021;-83
2021/08/09 03:35:30;;;;;;;178.52;161.55;;;;;;;;;;5263186;27;20024;-84
2021/08/09 03:37:59;;;;;;;174.02;157.20;;;;;;;;;;5259922;27;20049;-83
2021/08/09 03:40:28;;;;;;;172.27;155.68;;;;;;;;;;5263758;27;20067;-83
2021/08/09 03:42:56;;;;;;;174.98;158.65;;;;;;;;;;5265346;27;20041;-83
2021/08/09 03:45:24;;;;;;;161.45;145.38;;;;;;;;;;5265277;27;20057;-83
2021/08/09 03:47:54;;;;;;;217.45;173.20;;;;;;;;;;5260849;27;20045;-84
2021/08/09 03:50:22;;;;;;;215.55;167.55;;;;;;;;;;5260610;27;20050;-84
2021/08/09 03:52:52;;;;;;;217.15;175.00;;;;;;;;;;5260552;27;20062;-85
2021/08/09 03:55:22;;;;;;;222.88;166.23;;;;;;;;;;5262856;27;20018;-85
2021/08/09 03:57:50;;;;;;;211.98;149.57;;;;;;;;;;5260856;27;20095;-84
2021/08/09 04:00:19;;;;;;;191.55;132.55;;;;;;;;;;5258748;27;20357;-85
2021/08/09 04:02:48;;;;;;;190.50;131.57;;;;;;;;;;5262043;27;20100;-85
2021/08/09 04:05:17;;;;;;;186.62;131.87;;;;;;;;;;5261678;27;20443;-84
2021/08/09 04:07:46;;;;;;;183.43;134.45;;;;;;;;;;5261092;27;20056;-85
2021/08/09 04:10:15;;;;;;;168.48;132.90;;;;;;;;;;5259907;27;20053;-84
2021/08/09 04:12:43;;;;;;;146.50;128.38;;;;;;;;;;5259290;27;20009;-85
2021/08/09 04:15:12;;;;;;;147.27;128.10;;;;;;;;;;5258411;27;20749;-84
2021/08/09 04:17:42;;;;;;;139.95;116.90;;;;;;;;;;5258984;27;20061;-85
2021/08/09 04:20:10;;;;;;;145.90;130.23;;;;;;;;;;5258509;27;20423;-85
2021/08/09 04:22:39;;;;;;;158.87;141.60;;;;;;;;;;5243090;27;20385;-86
2021/08/09 04:25:08;;;;;;;160.30;138.75;;;;;;;;;;5269251;27;20082;-85
2021/08/09 04:27:37;;;;;;;165.80;144.77;;;;;;;;;;5267912;27;20021;-85
2021/08/09 04:30:05;;;;;;;162.25;138.05;;;;;;;;;;5262753;27;20426;-85
2021/08/09 04:32:41;;;;;;;149.25;132.82;;;;;;;;;;5266524;27;20083;-84
2021/08/09 04:35:11;;;;;;;153.27;132.80;;;;;;;;;;5263788;27;20039;-84
2021/08/09 04:37:41;;;;;;;147.70;131.07;;;;;;;;;;5248745;27;20029;-85
2021/08/09 04:40:10;;;;;;;155.20;131.20;;;;;;;;;;5267286;27;20018;-84
2021/08/09 04:42:38;;;;;;;148.87;128.95;;;;;;;;;;5263156;27;20428;-85
2021/08/09 04:45:08;;;;;;;190.05;157.37;;;;;;;;;;5266559;27;20037;-85
2021/08/09 04:47:37;;;;;;;200.10;146.02;;;;;;;;;;5267456;27;20055;-84
2021/08/09 04:50:05;;;;;;;200.13;148.57;;;;;;;;;;5266219;27;20028;-85
2021/08/09 04:52:42;;;;;;;196.73;177.32;;;;;;;;;;5262193;27;20063;-84
2021/08/09 04:55:11;;;;;;;191.85;173.15;;;;;;;;;;5266266;27;20014;-84
2021/08/09 04:57:40;;;;;;;188.68;170.23;;;;;;;;;;5270038;27;20487;-84
2021/08/09 05:00:09;;;;;;;178.57;161.88;;;;;;;;;;5264558;27;20022;-84
2021/08/09 05:02:38;;;;;;;177.77;161.02;;;;;;;;;;5246414;27;20303;-86
2021/08/09 05:05:08;;;;;;;203.95;149.27;;;;;;;;;;5268131;27;20060;-84
2021/08/09 05:07:36;;;;;;;192.70;144.73;;;;;;;;;;5268885;27;20058;-85
2021/08/09 05:10:05;;;;;;;189.07;144.00;;;;;;;;;;5267436;27;20062;-84
2021/08/09 05:12:34;;;;;;;188.93;143.27;;;;;;;;;;5267087;27;20022;-84
2021/08/09 05:15:05;;;;;;;194.60;144.93;;;;;;;;;;5268096;27;20053;-84
2021/08/09 05:17:36;;;;;;;186.05;143.40;;;;;;;;;;5251611;27;21246;-84
2021/08/09 05:20:08;;;;;;;189.00;143.02;;;;;;;;;;5263258;27;20754;-85
2021/08/09 05:22:37;;;;;;;197.50;144.60;;;;;;;;;;5265790;27;20025;-84
2021/08/09 05:25:10;;;;;;;187.82;139.12;;;;;;;;;;5264928;27;20021;-85
2021/08/09 05:27:39;;;;;;;218.15;178.85;;;;;;;;;;5271106;27;20329;-84
2021/08/09 05:30:09;;;;;;;158.73;143.05;;;;;;;;;;5267893;27;20029;-84
2021/08/09 05:32:38;;;;;;;158.40;143.18;;;;;;;;;;5267318;27;20018;-85
2021/08/09 05:35:08;;;;;;;158.57;143.30;;;;;;;;;;5267559;27;20055;-85
2021/08/09 05:37:36;;;;;;;174.82;158.52;;;;;;;;;;5270480;27;20014;-84
2021/08/09 05:40:06;;;;;;;172.65;156.70;;;;;;;;;;5249207;27;20025;-83
2021/08/09 05:42:35;;;;;;;178.70;160.95;;;;;;;;;;5264106;27;20068;-84
2021/08/09 05:45:07;;;;;;;220.90;174.25;;;;;;;;;;5267528;27;20018;-85
2021/08/09 05:47:37;;;;;;;220.48;176.05;;;;;;;;;;5270012;27;20115;-84
2021/08/09 05:50:06;;;;;;;209.95;161.02;;;;;;;;;;5268577;27;20044;-85
2021/08/09 05:52:35;;;;;;;184.65;134.75;;;;;;;;;;5262913;27;20064;-84
2021/08/09 05:55:05;;;;;;;185.50;135.88;;;;;;;;;;5268911;27;20029;-85
2021/08/09 05:57:34;;;;;;;197.55;138.93;;;;;;;;;;5248740;27;20058;-84
2021/08/09 06:00:04;;;;;;;191.43;137.80;;;;;;;;;;5267128;27;20049;-85
2021/08/09 06:02:42;;;;;;;186.37;135.70;;;;;;;;;;5249182;27;20009;-84
2021/08/09 06:05:12;;;;;;;186.68;136.90;;;;;;;;;;5264795;27;20021;-85
2021/08/09 06:07:43;;;;;;;184.43;135.43;;;;;;;;;;5265073;27;20406;-84
2021/08/09 06:10:12;;;;;;;186.77;169.27;;;;;;;;;;5269102;27;20026;-84
2021/08/09 06:12:41;;;;;;;187.62;169.73;;;;;;;;;;5264598;27;20056;-85
2021/08/09 06:15:11;;;;;;;183.77;165.80;;;;;;;;;;5262779;27;20056;-85
2021/08/09 06:17:40;;;;;;;165.70;149.95;;;;;;;;;;5268822;27;20580;-85
2021/08/09 06:20:09;;;;;;;152.85;137.88;;;;;;;;;;5269231;27;20322;-84
2021/08/09 06:22:37;;;;;;;209.43;172.25;;;;;;;;;;5267278;27;20420;-85
2021/08/09 06:25:07;;;;;;;213.75;178.02;;;;;;;;;;5261805;27;20428;-85
2021/08/09 06:27:36;;;;;;;194.90;148.87;;;;;;;;;;5271004;27;20076;-84
2021/08/09 06:30:05;;;;;;;201.80;154.87;;;;;;;;;;5269721;27;20384;-86
2021/08/09 06:32:34;;;;;;;206.20;158.05;;;;;;;;;;5248678;27;20430;-84
2021/08/09 06:35:04;;;;;;;204.80;160.70;;;;;;;;;;5266903;27;20050;-84
2021/08/09 06:37:35;;;;;;;210.00;164.48;;;;;;;;;;5267799;27;20436;-84
2021/08/09 06:40:04;;;;;;;206.57;164.35;;;;;;;;;;5267519;27;20047;-84
2021/08/09 06:42:37;;;;;;;213.07;163.55;;;;;;;;;;5267360;27;20045;-84
2021/08/09 06:45:06;;;;;;;212.50;163.48;;;;;;;;;;5266441;27;20037;-84
2021/08/09 06:47:35;;;;;;;261.70;198.48;;;;;;;;;;5270958;27;20018;-84
2021/08/09 06:50:04;;;;;;;213.35;193.52;;;;;;;;;;5267321;27;20058;-84
2021/08/09 06:52:33;;;;;;;246.30;223.43;;;;;;;;;;5265519;27;20043;-85
2021/08/09 06:55:02;;;;;;;262.38;237.48;;;;;;;;;;5264802;27;20048;-85
2021/08/09 06:57:31;;;;;;;270.88;244.50;;;;;;;;;;5265651;27;20068;-84
2021/08/09 07:00:00;;;;;;;250.85;224.73;;;;;;;;;;5268792;27;20014;-84
2021/08/09 07:02:29;;;;;;;278.42;228.80;;;;;;;;;;5265786;27;20048;-84
2021/08/09 07:04:59;;;;;;;201.45;179.38;;;;;;;;;;5263120;27;20034;-85
2021/08/09 07:07:31;;;;;;;8.90;3.05;;;;;;;;;;5269729;27;20029;-85
2021/08/09 07:10:01;;;;;;;9.25;1.90;;;;;;;;;;5245811;27;20108;-86
2021/08/09 07:12:30;;;;;;;4.65;1.73;;;;;;;;;;5263420;27;20128;-85
2021/08/09 07:14:58;;;;;;;5.70;1.35;;;;;;;;;;5259424;27;20149;-85
2021/08/09 07:17:29;;;;;;;5.45;1.20;;;;;;;;;;5266683;27;20024;-85
2021/08/09 07:19:57;;;;;;;4.95;1.33;;;;;;;;;;5265724;27;20052;-86
2021/08/09 07:22:26;;;;;;;10.43;1.62;;;;;;;;;;5267749;27;20082;-85
2021/08/09 07:24:55;;;;;;;4.80;1.33;;;;;;;;;;5260914;27;20053;-85
2021/08/09 07:27:23;;;;;;;4.85;1.37;;;;;;;;;;5269683;27;20097;-86
2021/08/09 07:29:53;;;;;;;3.37;1.15;;;;;;;;;;5248599;27;20454;-87
2021/08/09 07:32:22;;;;;;;5.35;1.42;;;;;;;;;;5262251;27;20136;-86
2021/08/09 07:34:51;;;;;;;4.03;1.30;;;;;;;;;;5265628;27;20018;-86
2021/08/09 07:37:19;;;;;;;8.20;1.30;;;;;;;;;;5260943;27;20086;-86
2021/08/09 07:39:48;;;;;;;7.20;1.80;;;;;;;;;;5243795;27;20411;-86
2021/08/09 07:42:16;;;;;;;8.07;1.60;;;;;;;;;;5270341;27;20017;-86
2021/08/09 07:44:53;;;;;;;7.80;1.25;;;;;;;;;;5262608;27;20032;-86
2021/08/09 07:47:21;;;;;;;4.57;1.17;;;;;;;;;;5270241;27;20075;-85
2021/08/09 07:49:50;;;;;;;5.95;1.25;;;;;;;;;;5273723;27;20047;-85
2021/08/09 07:52:19;;;;;;;4.03;1.23;;;;;;;;;;5262559;27;20053;-86
2021/08/09 07:54:48;;;;;;;5.25;1.35;;;;;;;;;;5269783;27;20022;-86
2021/08/09 07:57:18;;;;;;;7.70;1.65;;;;;;;;;;5271598;27;20096;-85
2021/08/09 07:59:47;;;;;;;5.32;1.10;;;;;;;;;;5268203;27;20047;-85
2021/08/09 08:02:15;;;;;;;3.97;1.20;;;;;;;;;;5269082;27;20039;-86
2021/08/09 08:04:44;;;;;;;5.57;1.55;;;;;;;;;;5266642;27;20113;-86
2021/08/09 08:07:13;;;;;;;7.12;1.42;;;;;;;;;;5267812;27;20169;-85
2021/08/09 08:09:42;;;;;;;7.53;1.75;;;;;;;;;;5267699;27;20018;-86
2021/08/09 08:12:11;;;;;;;5.72;1.30;;;;;;;;;;5262767;27;20463;-85
2021/08/09 08:14:39;;;;;;;5.05;0.90;;;;;;;;;;5249142;27;20025;-86
2021/08/09 08:17:08;;;;;;;6.97;1.35;;;;;;;;;;5268330;27;20393;-86
2021/08/09 08:19:37;;;;;;;7.37;1.60;;;;;;;;;;5263552;27;20033;-86
2021/08/09 08:22:06;;;;;;;5.00;1.20;;;;;;;;;;5264478;27;20431;-85
2021/08/09 08:24:35;;;;;;;6.05;1.33;;;;;;;;;;5271279;27;20028;-86
2021/08/09 08:27:04;;;;;;;5.00;1.40;;;;;;;;;;5272062;27;20061;-86
2021/08/09 08:29:32;;;;;;;6.28;1.25;;;;;;;;;;5269760;27;20040;-86
2021/08/09 08:32:02;;;;;;;5.68;1.25;;;;;;;;;;5249955;27;20062;-87
2021/08/09 08:34:35;;;;;;;6.57;1.30;;;;;;;;;;5254321;27;20112;-87
2021/08/09 08:37:04;;;;;;;3.60;1.10;;;;;;;;;;5254442;27;20113;-86
2021/08/09 08:39:33;;;;;;;7.60;1.27;;;;;;;;;;5228735;27;20029;-86
2021/08/09 08:42:02;;;;;;;7.35;1.30;;;;;;;;;;5269126;27;20029;-86
2021/08/09 08:44:31;;;;;;;6.28;1.33;;;;;;;;;;5271337;27;20026;-86
2021/08/09 08:47:00;;;;;;;4.00;1.20;;;;;;;;;;5269563;27;20517;-86
2021/08/09 08:49:29;;;;;;;4.90;1.50;;;;;;;;;;5264250;27;20372;-84
2021/08/09 08:51:58;;;;;;;8.05;1.65;;;;;;;;;;5260726;27;20066;-84
2021/08/09 08:54:26;;;;;;;4.22;1.23;;;;;;;;;;5259971;27;20056;-83
2021/08/09 08:56:55;;;;;;;3.17;1.15;;;;;;;;;;5247097;27;20061;-84
2021/08/09 08:59:23;;;;;;;4.70;1.30;;;;;;;;;;5246058;27;20053;-84
2021/08/09 09:01:51;;;;;;;4.93;1.50;;;;;;;;;;5248193;27;20052;-84
2021/08/09 09:04:31;;;;;;;3.75;1.17;;;;;;;;;;5256826;27;20098;-83
2021/08/09 09:07:02;;;;;;;6.78;1.50;;;;;;;;;;5254673;27;20013;-83
2021/08/09 09:09:32;;;;;;;5.03;1.37;;;;;;;;;;5242362;27;20045;-84
2021/08/09 09:12:12;;;;;;;4.43;1.33;;;;;;;;;;5264758;27;20041;-84
2021/08/09 09:14:42;;;;;;;7.25;1.52;;;;;;;;;;5265110;27;20400;-83
2021/08/09 09:17:11;;;;;;;3.90;1.35;;;;;;;;;;5270518;27;20048;-83
2021/08/09 09:19:39;;;;;;;4.10;1.30;;;;;;;;;;5268000;27;20036;-83
2021/08/09 09:22:09;;;;;;;4.45;1.35;;;;;;;;;;5273109;27;20029;-84
2021/08/09 09:24:47;;;;;;;6.35;1.42;;;;;;;;;;5264960;27;20145;-83
2021/08/09 09:27:36;;;;;;;3.35;1.33;;;;;;;;;;5269720;27;20068;-83
2021/08/09 09:30:24;;;;;;;4.50;1.30;;;;;;;;;;5265918;27;20078;-83
2021/08/09 09:32:59;;;;;;;5.47;1.30;;;;;;;;;;5264113;27;20328;-83
2021/08/09 09:35:28;;;;;;;5.18;1.12;;;;;;;;;;5270892;27;20022;-84
2021/08/09 09:38:00;;;;;;;7.35;1.37;;;;;;;;;;5269543;27;20124;-83
2021/08/09 09:40:38;;;;;;;3.30;1.10;;;;;;;;;;5243169;27;20022;-84
2021/08/09 09:43:17;;;;;;;5.50;1.40;;;;;;;;;;5266075;27;20032;-84
2021/08/09 09:45:53;;;;;;;4.25;1.45;;;;;;;;;;5268698;27;20527;-84
2021/08/09 09:48:28;;;;;;;6.10;1.10;;;;;;;;;;5260772;27;20388;-85
2021/08/09 09:51:07;;;;;;;4.07;1.30;;;;;;;;;;5267133;27;20014;-83
2021/08/09 09:53:36;;;;;;;5.70;1.60;;;;;;;;;;5263315;27;20064;-85
2021/08/09 09:56:04;;;;;;;2.28;1.00;;;;;;;;;;5272027;27;20079;-83
2021/08/09 09:58:34;;;;;;;5.50;1.10;;;;;;;;;;5265403;27;20057;-84
2021/08/09 10:01:04;;;;;;;4.12;1.30;;;;;;;;;;5270316;27;20025;-83
2021/08/09 10:03:33;;;;;;;3.67;1.17;;;;;;;;;;5267764;27;20029;-83
2021/08/09 10:06:02;;;;;;;5.30;1.45;;;;;;;;;;5271718;27;20438;-84
2021/08/09 10:08:44;;;;;;;5.50;1.40;;;;;;;;;;5264609;27;20018;-83
2021/08/09 10:11:14;;;;;;;5.93;1.48;;;;;;;;;;5270503;27;20026;-84
2021/08/09 10:13:44;;;;;;;3.40;1.30;;;;;;;;;;5269171;27;20487;-83
2021/08/09 10:16:12;;;;;;;7.25;1.45;;;;;;;;;;5273907;27;20025;-83
2021/08/09 10:18:43;;;;;;;6.28;1.50;;;;;;;;;;5265964;27;20034;-83
2021/08/09 10:21:11;;;;;;;6.03;1.27;;;;;;;;;;5271838;27;20048;-83
2021/08/09 10:23:40;;;;;;;5.40;1.27;;;;;;;;;;5270717;27;21209;-84
2021/08/09 10:26:09;;;;;;;5.85;1.40;;;;;;;;;;5269471;27;20026;-84
2021/08/09 10:28:50;;;;;;;6.07;1.27;;;;;;;;;;5270508;27;20539;-84
2021/08/09 10:31:24;;;;;;;4.03;1.10;;;;;;;;;;5268513;27;20411;-84
2021/08/09 10:33:53;;;;;;;6.35;1.20;;;;;;;;;;5274611;27;20019;-84
2021/08/09 10:36:23;;;;;;;5.15;1.02;;;;;;;;;;5270609;27;20063;-83
2021/08/09 10:38:53;;;;;;;4.22;1.10;;;;;;;;;;5267771;27;20031;-84
2021/08/09 10:41:24;;;;;;;6.03;1.52;;;;;;;;;;5271878;27;20052;-84
2021/08/09 10:44:08;;;;;;;5.00;1.27;;;;;;;;;;5269148;27;20014;-83
2021/08/09 10:46:40;;;;;;;4.70;1.27;;;;;;;;;;5272876;27;20391;-83
2021/08/09 10:49:10;;;;;;;5.55;1.25;;;;;;;;;;5266240;27;20161;-84
2021/08/09 10:51:51;;;;;;;2.90;1.08;;;;;;;;;;5270343;27;20025;-83
2021/08/09 10:54:29;;;;;;;5.65;1.25;;;;;;;;;;5273141;27;20033;-83
2021/08/09 10:57:00;;;;;;;7.45;1.30;;;;;;;;;;5268859;27;20013;-83
2021/08/09 10:59:38;;;;;;;8.00;1.12;;;;;;;;;;5275568;27;20021;-83
2021/08/09 11:02:19;;;;;;;5.87;1.48;;;;;;;;;;5272096;27;20067;-83
2021/08/09 11:05:06;;;;;;;5.07;1.25;;;;;;;;;;5271993;27;20421;-83
2021/08/09 11:07:34;;;;;;;14.63;1.70;;;;;;;;;;5272962;27;20052;-83
2021/08/09 11:10:03;;;;;;;4.50;1.25;;;;;;;;;;5253729;27;20375;-83
2021/08/09 11:12:32;;;;;;;3.15;0.93;;;;;;;;;;5272568;27;20061;-84
2021/08/09 11:15:04;;;;;;;3.95;1.00;;;;;;;;;;5268853;27;20385;-83
2021/08/09 11:17:53;;;;;;;5.95;1.35;;;;;;;;;;5273108;27;20040;-86
2021/08/09 11:20:25;;;;;;;5.15;1.10;;;;;;;;;;5273808;27;20275;-85
2021/08/09 11:23:02;;;;;;;8.20;1.53;;;;;;;;;;5252929;27;20055;-86
2021/08/09 11:25:44;;;;;;;3.53;1.10;;;;;;;;;;5272287;27;20014;-86
2021/08/09 11:28:21;;;;;;;7.70;1.35;;;;;;;;;;5268882;27;20490;-85
2021/08/09 11:30:51;;;;;;;5.65;1.20;;;;;;;;;;5250731;27;20048;-85
2021/08/09 11:33:44;;;;;;;3.45;1.00;;;;;;;;;;5272644;27;20040;-86
2021/08/09 11:36:14;;;;;;;5.65;1.25;;;;;;;;;;5259186;27;20024;-86
2021/08/09 11:38:52;;;;;;;5.95;1.40;;;;;;;;;;5267710;27;20341;-85
2021/08/09 11:41:22;;;;;;;8.52;1.50;;;;;;;;;;5274603;27;20049;-85
2021/08/09 11:43:51;;;;;;;3.95;1.00;;;;;;;;;;5271492;27;20030;-85
2021/08/09 11:46:20;;;;;;;4.30;1.00;;;;;;;;;;5245188;27;20026;-85
2021/08/09 11:48:49;;;;;;;7.28;1.08;;;;;;;;;;5271867;27;20407;-86
2021/08/09 11:51:24;;;;;;;4.15;1.20;;;;;;;;;;5277709;27;20021;-85
2021/08/09 11:53:53;;;;;;;4.45;1.08;;;;;;;;;;5274356;27;20010;-85
2021/08/09 11:56:24;;;;;;;3.55;0.98;;;;;;;;;;5273583;27;20056;-86
2021/08/09 11:58:52;;;;;;;8.63;1.33;;;;;;;;;;5275234;27;21492;-85
2021/08/09 12:01:35;;;;;;;5.65;1.25;;;;;;;;;;5273455;27;20441;-85
2021/08/09 12:04:23;;;;;;;4.45;1.10;;;;;;;;;;5272505;27;20026;-86
2021/08/09 12:07:00;;;;;;;3.55;1.02;;;;;;;;;;5268657;27;20022;-86
2021/08/09 12:09:39;;;;;;;6.10;1.50;;;;;;;;;;5269677;27;20022;-85
2021/08/09 12:12:09;;;;;;;6.20;1.17;;;;;;;;;;5273090;27;20052;-85
2021/08/09 12:14:38;;;;;;;6.20;0.98;;;;;;;;;;5271362;27;20052;-85
2021/08/09 12:17:19;;;;;;;3.42;0.88;;;;;;;;;;5272823;27;20018;-86
2021/08/09 12:19:49;;;;;;;5.35;1.17;;;;;;;;;;5253840;27;20402;-85
2021/08/09 12:22:19;;;;;;;4.45;1.00;;;;;;;;;;5274666;27;20053;-85
2021/08/09 12:25:09;;;;;;;5.22;1.25;;;;;;;;;;5274943;27;20053;-86
2021/08/09 12:27:38;;;;;;;3.25;0.95;;;;;;;;;;5270252;27;20045;-85
2021/08/09 12:30:14;;;;;;;7.90;1.05;;;;;;;;;;5265970;27;20048;-85
2021/08/09 12:32:59;;;;;;;5.95;1.20;;;;;;;;;;5269224;27;20036;-85
2021/08/09 12:35:32;;;;;;;6.22;1.30;;;;;;;;;;5254328;27;20438;-85
2021/08/09 12:38:01;;;;;;;4.62;0.90;;;;;;;;;;5268803;27;20040;-86
2021/08/09 12:40:38;;;;;;;2.83;1.12;;;;;;;;;;5270346;27;20026;-85
2021/08/09 12:43:18;;;;;;;9.63;1.52;;;;;;;;;;5254792;27;20453;-86
2021/08/09 12:45:48;;;;;;;3.78;0.80;;;;;;;;;;5273893;27;20026;-85
2021/08/09 12:48:17;;;;;;;6.25;1.20;;;;;;;;;;5273230;27;20025;-85
2021/08/09 12:50:45;;;;;;;5.15;0.90;;;;;;;;;;5271703;27;20051;-85
2021/08/09 12:53:15;;;;;;;5.90;1.00;;;;;;;;;;5275247;27;20113;-85
2021/08/09 12:55:43;;;;;;;4.18;1.02;;;;;;;;;;5276574;27;20017;-85
2021/08/09 12:58:12;;;;;;;3.65;1.00;;;;;;;;;;5273948;27;20038;-86
2021/08/09 13:00:40;;;;;;;5.85;1.37;;;;;;;;;;5273471;27;20388;-85
2021/08/09 13:03:08;;;;;;;4.18;1.05;;;;;;;;;;5274163;27;20013;-85
2021/08/09 13:05:38;;;;;;;3.83;1.10;;;;;;;;;;5275742;27;20497;-85
2021/08/09 13:08:07;;;;;;;4.37;1.00;;;;;;;;;;5273208;27;20216;-86
2021/08/09 13:10:35;;;;;;;3.72;0.90;;;;;;;;;;5273627;27;20052;-86
2021/08/09 13:13:03;;;;;;;3.85;1.05;;;;;;;;;;5275911;27;20047;-85
2021/08/09 13:15:32;;;;;;;4.20;1.02;;;;;;;;;;5275542;27;20040;-85
2021/08/09 13:18:00;;;;;;;3.65;0.85;;;;;;;;;;5274718;27;20036;-85
2021/08/09 13:20:29;;;;;;;5.97;1.27;;;;;;;;;;5274393;27;20010;-85
2021/08/09 13:22:58;;;;;;;3.50;0.77;;;;;;;;;;5273309;27;20481;-84
2021/08/09 13:25:26;;;;;;;4.93;0.88;;;;;;;;;;5255262;27;20026;-84
2021/08/09 13:27:55;;;;;;;6.37;1.00;;;;;;;;;;5276151;27;20030;-85
2021/08/09 13:30:24;;;;;;;2.92;0.60;;;;;;;;;;5275847;27;20026;-85
2021/08/09 13:32:53;;;;;;;5.70;1.10;;;;;;;;;;5276613;27;20006;-86
2021/08/09 13:35:21;;;;;;;3.12;1.00;;;;;;;;;;5275441;27;20041;-84
2021/08/09 13:37:50;;;;;;;4.25;1.00;;;;;;;;;;5276203;27;20040;-85
2021/08/09 13:40:18;;;;;;;5.45;0.95;;;;;;;;;;5270261;27;20083;-85
2021/08/09 13:43:03;;;;;;;5.72;1.08;;;;;;;;;;5275906;27;20387;-85
2021/08/09 13:45:32;;;;;;;4.10;0.82;;;;;;;;;;5276070;27;20061;-84
2021/08/09 13:48:01;;;;;;;6.65;1.15;;;;;;;;;;5276838;27;20021;-85
2021/08/09 13:50:30;;;;;;;8.23;1.70;;;;;;;;;;5271743;27;20040;-84
2021/08/09 13:52:59;;;;;;;6.45;1.15;;;;;;;;;;5266516;27;20016;-85
2021/08/09 13:55:27;;;;;;;7.72;1.45;;;;;;;;;;5271509;27;20018;-85
2021/08/09 13:57:56;;;;;;;6.18;0.85;;;;;;;;;;5275810;27;20367;-85
2021/08/09 14:00:24;;;;;;;6.35;0.90;;;;;;;;;;5272182;27;20017;-85
2021/08/09 14:02:53;;;;;;;7.53;1.20;;;;;;;;;;5271095;27;20025;-85
2021/08/09 14:05:21;;;;;;;5.62;1.05;;;;;;;;;;5272501;27;20458;-85
2021/08/09 14:07:50;;;;;;;4.57;1.08;;;;;;;;;;5273482;27;20404;-85
2021/08/09 14:10:20;;;;;;;3.70;1.00;;;;;;;;;;5249168;27;20029;-84
2021/08/09 14:12:48;;;;;;;4.40;0.95;;;;;;;;;;5266646;27;20080;-85
2021/08/09 14:15:17;;;;;;;3.67;0.80;;;;;;;;;;5271474;27;20030;-85
2021/08/09 14:17:46;;;;;;;5.43;0.90;;;;;;;;;;5270060;27;20068;-84
2021/08/09 14:20:15;;;;;;;10.50;1.15;;;;;;;;;;5267914;27;20845;-85
2021/08/09 14:22:44;;;;;;;7.53;1.40;;;;;;;;;;5273323;27;20359;-85
2021/08/09 14:25:12;;;;;;;2.92;0.60;;;;;;;;;;5271143;27;20026;-84
2021/08/09 14:27:42;;;;;;;5.53;1.20;;;;;;;;;;5271827;27;20059;-85
2021/08/09 14:30:11;;;;;;;7.05;1.15;;;;;;;;;;5269993;27;20029;-84
2021/08/09 14:32:41;;;;;;;6.15;1.25;;;;;;;;;;5267186;27;20030;-84
2021/08/09 14:35:13;;;;;;;7.07;1.17;;;;;;;;;;5268481;27;20024;-84
2021/08/09 14:37:43;;;;;;;4.22;0.50;;;;;;;;;;5270439;27;20023;-85
2021/08/09 14:40:11;;;;;;;7.32;1.17;;;;;;;;;;5273763;27;20055;-85
2021/08/09 14:42:41;;;;;;;4.10;0.88;;;;;;;;;;5271626;27;20021;-84
2021/08/09 14:45:11;;;;;;;5.00;0.80;;;;;;;;;;5273574;27;20392;-85
2021/08/09 14:47:41;;;;;;;4.28;0.98;;;;;;;;;;5273950;27;20037;-85
2021/08/09 14:50:11;;;;;;;4.35;0.90;;;;;;;;;;5270550;27;20042;-85